createdAt,value
2024-03-01T00:03:18.614Z,12.8
2024-03-01T00:08:20.900Z,12.8
2024-03-01T00:13:23.324Z,12.8
2024-03-01T00:18:25.302Z,12.8
2024-03-01T00:23:27.670Z,12.8
2024-03-01T00:28:30.015Z,12.8
2024-03-01T00:33:32.280Z,12.8
2024-03-01T00:38:34.353Z,12.9
2024-03-01T00:43:36.567Z,12.9
2024-03-01T00:48:38.628Z,12.9
2024-03-01T00:53:40.766Z,12.9
2024-03-01T00:58:43.100Z,12.9
2024-03-01T01:03:45.228Z,12.9
2024-03-01T01:08:47.365Z,12.9
2024-03-01T01:13:49.769Z,12.9
2024-03-01T01:18:51.794Z,12.9
2024-03-01T01:23:53.930Z,12.9
2024-03-01T01:28:56.194Z,12.9
2024-03-01T01:33:58.224Z,12.9
2024-03-01T01:39:00.524Z,12.9
2024-03-01T01:44:02.684Z,12.9
2024-03-01T01:49:05.009Z,12.9
2024-03-01T01:54:07.249Z,12.9
2024-03-01T01:59:09.528Z,12.9
2024-03-01T02:04:11.635Z,12.9
2024-03-01T02:09:14.169Z,12.9
2024-03-01T02:14:15.945Z,12.9
2024-03-01T02:19:18.096Z,12.9
2024-03-01T02:24:20.319Z,12.9
2024-03-01T02:29:22.605Z,12.9
2024-03-01T02:34:24.745Z,12.9
2024-03-01T02:39:26.927Z,12.9
2024-03-01T02:44:29.119Z,12.9
2024-03-01T02:49:31.354Z,12.9
2024-03-01T06:32:59.146Z,12.9
2024-03-01T06:38:01.140Z,12.9
2024-03-01T06:43:03.497Z,12.9
2024-03-01T06:48:05.674Z,12.9
2024-03-01T06:53:07.779Z,12.9
2024-03-01T06:58:09.915Z,12.9
2024-03-01T07:03:12.162Z,12.9
2024-03-01T07:08:14.381Z,12.8
2024-03-01T07:13:16.558Z,12.8
2024-03-01T07:18:18.822Z,12.8
2024-03-01T07:23:20.942Z,12.8
2024-03-01T07:28:23.100Z,12.8
2024-03-01T07:33:25.332Z,12.8
2024-03-01T07:38:27.529Z,12.9
2024-03-01T07:43:29.763Z,12.8
2024-03-01T07:48:32.051Z,12.8
2024-03-01T07:53:35.300Z,12.9
2024-03-01T07:58:38.119Z,12.9
2024-03-01T08:03:39.827Z,12.9
2024-03-01T08:08:41.946Z,13
2024-03-01T08:13:44.219Z,13.1
2024-03-01T08:18:46.486Z,13.4
2024-03-01T08:23:48.506Z,13.8
2024-03-01T08:28:50.713Z,14.2
2024-03-01T08:33:53.004Z,14.7
2024-03-01T08:38:55.184Z,15.2
2024-03-01T08:43:57.319Z,15.8
2024-03-01T08:48:59.756Z,16.3
2024-03-01T08:54:01.798Z,16.9
2024-03-01T08:59:03.953Z,17.5
2024-03-01T09:04:07.867Z,18.1
2024-03-01T09:09:08.481Z,18.7
2024-03-01T09:14:10.620Z,19.3
2024-03-01T09:19:12.892Z,19.7
2024-03-01T09:24:14.884Z,20.1
2024-03-01T09:29:17.280Z,20.2
2024-03-01T09:34:19.611Z,20.3
2024-03-01T09:39:21.745Z,20.3
2024-03-01T09:44:23.916Z,20.5
2024-03-01T09:49:26.337Z,20.6
2024-03-01T09:54:28.586Z,20.6
2024-03-01T09:59:30.834Z,20.6
2024-03-01T10:04:33.167Z,20.5
2024-03-01T10:09:36.381Z,20.1
2024-03-01T10:14:38.720Z,19.8
2024-03-01T10:19:41.042Z,19.5
2024-03-01T10:24:43.037Z,19.3
2024-03-01T10:29:45.385Z,19.2
2024-03-01T10:34:47.580Z,19
2024-03-01T10:39:49.687Z,19
2024-03-01T10:44:51.921Z,19
2024-03-01T10:49:54.090Z,19
2024-03-01T10:54:56.633Z,19.1
2024-03-01T10:59:58.525Z,19.3
2024-03-01T11:05:00.803Z,19.7
2024-03-01T11:10:02.847Z,20
2024-03-01T11:15:04.953Z,20.4
2024-03-01T11:20:07.222Z,20.8
2024-03-01T11:25:09.252Z,21
2024-03-01T11:30:11.609Z,21.1
2024-03-01T11:35:13.866Z,21.1
2024-03-01T11:40:16.096Z,21.1
2024-03-01T11:45:18.225Z,21.1
2024-03-01T11:50:20.491Z,21
2024-03-01T11:55:22.668Z,20.8
2024-03-01T12:00:24.809Z,20.7
2024-03-01T12:05:27.133Z,20.6
2024-03-01T12:10:29.554Z,20.4
2024-03-01T12:15:31.699Z,20.2
2024-03-01T12:20:33.992Z,20.1
2024-03-01T12:25:36.327Z,19.9
2024-03-01T12:30:38.561Z,19.8
2024-03-01T12:35:40.895Z,19.6
2024-03-01T12:40:43.088Z,19.5
2024-03-01T12:45:45.171Z,19.5
2024-03-01T12:50:47.582Z,19.5
2024-03-01T12:55:49.681Z,19.6
2024-03-01T13:00:52.011Z,19.7
2024-03-01T13:05:54.077Z,20
2024-03-01T13:10:56.197Z,20.3
2024-03-01T13:15:58.420Z,20.7
2024-03-01T13:21:00.549Z,21.1
2024-03-01T13:26:02.675Z,21.3
2024-03-01T13:31:04.954Z,21.5
2024-03-01T13:36:07.070Z,21.5
2024-03-01T13:41:09.245Z,21.5
2024-03-01T13:46:11.418Z,21.4
2024-03-01T13:51:13.567Z,21.3
2024-03-01T13:56:15.760Z,21.2
2024-03-01T14:01:18.008Z,21.1
2024-03-01T14:06:22.833Z,20.9
2024-03-01T14:11:22.561Z,20.8
2024-03-01T14:16:24.681Z,20.6
2024-03-01T14:21:27.104Z,20.5
2024-03-01T14:26:29.134Z,20.3
2024-03-01T14:31:31.301Z,20.2
2024-03-01T14:36:33.586Z,20
2024-03-01T14:41:35.632Z,19.9
2024-03-01T14:46:38.150Z,19.9
2024-03-01T14:51:40.276Z,19.9
2024-03-01T14:56:42.275Z,20
2024-03-01T15:01:44.699Z,20.2
2024-03-01T15:06:46.931Z,20.6
2024-03-01T15:11:49.081Z,20.9
2024-03-01T15:16:51.177Z,21.3
2024-03-01T15:21:53.346Z,21.5
2024-03-01T15:26:55.479Z,21.7
2024-03-01T15:31:57.612Z,21.7
2024-03-01T15:36:59.889Z,21.7
2024-03-01T15:42:01.985Z,21.6
2024-03-01T15:47:04.324Z,21.5
2024-03-01T15:52:06.491Z,21.4
2024-03-01T15:57:08.595Z,21.3
2024-03-01T16:02:10.889Z,21.2
2024-03-01T16:07:13.007Z,21
2024-03-01T16:12:15.111Z,20.9
2024-03-01T16:17:17.477Z,20.7
2024-03-01T16:22:19.711Z,20.6
2024-03-01T16:27:21.864Z,20.5
2024-03-01T16:32:24.328Z,20.4
2024-03-01T16:37:26.520Z,20.3
2024-03-01T16:42:28.710Z,20.3
2024-03-01T16:47:30.892Z,20.3
2024-03-01T16:52:33.063Z,20.4
2024-03-01T16:57:35.277Z,20.6
2024-03-01T17:02:37.472Z,20.9
2024-03-01T17:07:39.816Z,21.2
2024-03-01T17:12:41.768Z,21.4
2024-03-01T17:17:43.926Z,21.6
2024-03-01T17:22:46.125Z,21.7
2024-03-01T17:27:48.263Z,21.7
2024-03-01T17:32:50.523Z,21.7
2024-03-01T17:37:52.603Z,21.6
2024-03-01T17:42:54.731Z,21.5
2024-03-01T17:47:56.887Z,21.4
2024-03-01T17:52:59.172Z,21.3
2024-03-01T17:58:01.336Z,21.1
2024-03-01T18:03:03.662Z,21
2024-03-01T18:08:05.846Z,20.9
2024-03-01T18:13:07.970Z,20.8
2024-03-01T18:18:10.132Z,20.6
2024-03-01T18:23:12.263Z,20.5
2024-03-01T18:28:14.480Z,20.4
2024-03-01T18:33:16.688Z,20.4
2024-03-01T18:38:18.822Z,20.4
2024-03-01T18:43:21.106Z,20.4
2024-03-01T18:48:23.239Z,20.6
2024-03-01T18:53:25.398Z,20.8
2024-03-01T18:58:27.618Z,21.1
2024-03-01T19:03:29.853Z,21.4
2024-03-01T19:08:31.875Z,21.7
2024-03-01T19:13:34.238Z,21.8
2024-03-01T19:18:36.286Z,21.8
2024-03-01T19:23:38.451Z,21.8
2024-03-01T19:28:40.793Z,21.8
2024-03-01T19:33:42.843Z,21.7
2024-03-01T19:38:45.165Z,21.6
2024-03-01T19:43:47.321Z,21.5
2024-03-01T19:48:49.474Z,21.4
2024-03-01T19:53:51.625Z,21.3
2024-03-01T19:58:53.757Z,21.2
2024-03-01T20:03:55.875Z,21
2024-03-01T20:08:58.118Z,20.9
2024-03-01T20:14:00.184Z,20.8
2024-03-01T20:19:02.372Z,20.7
2024-03-01T20:24:04.497Z,20.6
2024-03-01T20:29:06.637Z,20.5
2024-03-01T20:34:08.858Z,20.5
2024-03-01T20:39:11.025Z,20.6
2024-03-01T20:44:13.260Z,20.7
2024-03-01T20:49:15.435Z,21
2024-03-01T20:54:17.570Z,21.2
2024-03-01T20:59:19.783Z,21.5
2024-03-01T21:04:21.972Z,21.7
2024-03-01T21:09:24.110Z,21.9
2024-03-01T21:14:26.395Z,21.9
2024-03-01T21:19:28.688Z,21.9
2024-03-01T21:24:30.800Z,21.9
2024-03-01T21:29:32.960Z,21.8
2024-03-01T21:34:35.072Z,21.7
2024-03-01T21:39:37.269Z,21.6
2024-03-01T21:44:39.528Z,21.5
2024-03-01T21:49:41.681Z,21.4
2024-03-01T21:54:43.981Z,21.3
2024-03-01T21:59:45.964Z,21.2
2024-03-01T22:04:48.091Z,21.1
2024-03-01T22:09:50.285Z,20.9
2024-03-01T22:14:52.603Z,20.8
2024-03-01T22:19:54.780Z,20.7
2024-03-01T22:24:56.980Z,20.7
2024-03-01T22:29:59.206Z,20.7
2024-03-01T22:35:01.353Z,20.7
2024-03-01T22:40:03.643Z,20.9
2024-03-01T22:45:05.698Z,21.1
2024-03-01T22:50:07.843Z,21.4
2024-03-01T22:55:10.236Z,21.7
2024-03-01T23:00:12.444Z,21.9
2024-03-01T23:05:14.735Z,22
2024-03-01T23:10:16.920Z,22
2024-03-01T23:15:19.052Z,22
2024-03-01T23:20:21.213Z,22
2024-03-01T23:25:23.399Z,21.9
2024-03-01T23:30:25.496Z,21.8
2024-03-01T23:35:27.678Z,21.7
2024-03-01T23:40:29.865Z,21.6
2024-03-01T23:45:32.099Z,21.5
2024-03-01T23:50:34.120Z,21.3
2024-03-01T23:55:36.423Z,21.2
